Time;durP1;ratioP1;P1;durP2;ratioP2;P2;SDS_P1;SDS_P2;PMS_P1;PMS_P2;Temp;Humidity;BMP_temperature;BMP_pressure;BME280_temperature;BME280_humidity;BME280_pressure;Samples;Min_cycle;Max_cycle;Signal;HPM_P1;HPM_P2
2021/12/27 00:02:16;;;;;;;3.17;1.60;;;;;;;8.66;100.00;98636.38;5077746;28;20067;-50
2021/12/27 00:04:45;;;;;;;3.85;1.42;;;;;;;8.73;100.00;98640.19;5077536;28;20102;-51
2021/12/27 00:07:14;;;;;;;6.80;1.55;;;;;;;8.75;100.00;98645.34;5076805;28;20057;-50
2021/12/27 00:09:43;;;;;;;3.47;1.33;;;;;;;8.74;100.00;98638.38;5076762;28;20056;-49
2021/12/27 00:12:11;;;;;;;5.65;2.83;;;;;;;8.73;100.00;98631.41;5077047;28;20056;-48
2021/12/27 00:14:41;;;;;;;7.15;1.80;;;;;;;8.79;100.00;98615.03;5077572;28;20056;-50
2021/12/27 00:17:09;;;;;;;6.40;1.70;;;;;;;8.74;100.00;98612.78;5077671;28;20056;-49
2021/12/27 00:19:37;;;;;;;8.02;2.10;;;;;;;8.86;100.00;98605.63;5077058;28;20061;-49
2021/12/27 00:22:05;;;;;;;4.38;1.90;;;;;;;8.84;100.00;98602.28;5076858;28;20060;-51
2021/12/27 00:24:34;;;;;;;7.60;1.98;;;;;;;8.91;100.00;98595.50;5076549;28;20057;-48
2021/12/27 00:27:02;;;;;;;8.27;2.60;;;;;;;8.97;100.00;98588.81;5076747;28;20082;-49
2021/12/27 00:29:30;;;;;;;11.52;2.53;;;;;;;8.93;100.00;98569.75;5076418;28;20528;-51
2021/12/27 00:32:00;;;;;;;12.40;2.97;;;;;;;8.93;100.00;98564.47;5076707;28;20090;-49
2021/12/27 00:34:28;;;;;;;10.88;2.55;;;;;;;9.00;100.00;98574.50;5076892;28;20059;-49
2021/12/27 00:36:56;;;;;;;13.43;2.72;;;;;;;8.99;100.00;98567.53;5077017;28;20052;-49
2021/12/27 00:39:25;;;;;;;6.75;2.40;;;;;;;9.07;100.00;98563.25;5076539;28;20063;-49
2021/12/27 00:41:53;;;;;;;12.20;3.00;;;;;;;9.17;100.00;98558.00;5076426;28;20068;-51
2021/12/27 00:44:21;;;;;;;12.57;3.08;;;;;;;9.20;100.00;98555.09;5077330;28;20077;-51
2021/12/27 00:46:49;;;;;;;11.50;3.22;;;;;;;9.21;100.00;98562.06;5076359;28;20060;-49
2021/12/27 00:49:19;;;;;;;12.68;3.28;;;;;;;9.18;100.00;98538.53;5077145;28;20459;-51
2021/12/27 00:51:47;;;;;;;15.27;3.08;;;;;;;9.18;100.00;98530.59;5076646;28;20063;-50
2021/12/27 00:54:16;;;;;;;12.70;3.28;;;;;;;9.22;100.00;98526.69;5075960;28;20075;-49
2021/12/27 00:56:45;;;;;;;13.77;3.22;;;;;;;9.23;100.00;98538.09;5076085;28;20064;-51
2021/12/27 00:59:13;;;;;;;15.18;3.83;;;;;;;9.24;100.00;98535.31;5075837;28;20053;-49
2021/12/27 01:01:42;;;;;;;18.65;4.07;;;;;;;9.24;100.00;98523.91;5075765;28;20052;-51
2021/12/27 01:04:10;;;;;;;19.73;3.92;;;;;;;9.29;100.00;98538.41;5076776;28;20417;-49
2021/12/27 01:06:41;;;;;;;13.40;4.57;;;;;;;9.27;100.00;98528.94;5075636;28;20533;-48
2021/12/27 01:09:13;;;;;;;20.17;4.40;;;;;;;9.30;100.00;98518.91;5075906;28;20064;-49
2021/12/27 01:11:57;;;;;;;21.63;4.03;;;;;;;9.36;100.00;98522.00;5075403;28;20428;-49
2021/12/27 01:14:39;;;;;;;15.82;4.82;;;;;;;9.37;100.00;98518.38;5075292;28;20519;-49
2021/12/27 01:17:08;;;;;;;18.10;4.68;;;;;;;9.42;100.00;98524.09;5076212;28;20056;-51
2021/12/27 01:19:36;;;;;;;14.60;4.15;;;;;;;9.42;100.00;98513.53;5075422;28;20064;-51
2021/12/27 01:22:06;;;;;;;15.55;4.22;;;;;;;9.34;100.00;98521.31;5075381;28;20053;-48
2021/12/27 01:24:34;;;;;;;15.57;3.95;;;;;;;9.30;100.00;98518.91;5075377;28;20060;-50
2021/12/27 01:27:02;;;;;;;14.35;4.03;;;;;;;9.34;100.00;98508.06;5076401;28;20067;-51
2021/12/27 01:29:31;;;;;;;15.95;4.07;;;;;;;9.30;100.00;98502.22;5075792;28;20063;-51
2021/12/27 01:31:59;;;;;;;12.65;3.67;;;;;;;9.35;100.00;98493.88;5075446;28;20052;-50
2021/12/27 01:34:27;;;;;;;14.27;3.88;;;;;;;9.37;100.00;98503.34;5075564;28;20056;-50
2021/12/27 01:36:57;;;;;;;22.17;3.78;;;;;;;9.36;100.00;98490.25;5075304;28;20060;-51
2021/12/27 01:39:26;;;;;;;14.88;4.18;;;;;;;9.40;100.00;98502.25;5075342;28;20060;-50
2021/12/27 01:41:55;;;;;;;17.15;4.93;;;;;;;9.35;100.00;98493.88;5075274;28;20057;-49
2021/12/27 01:44:23;;;;;;;18.75;4.00;;;;;;;9.39;100.00;98501.38;5074986;28;20057;-51
2021/12/27 01:46:53;;;;;;;15.07;3.92;;;;;;;9.35;100.00;98504.47;5075164;28;20060;-50
2021/12/27 01:49:21;;;;;;;20.40;4.20;;;;;;;9.26;100.00;98503.44;5075519;28;20056;-51
2021/12/27 01:51:49;;;;;;;16.35;3.70;;;;;;;9.16;100.00;98511.34;5075074;28;20439;-50
2021/12/27 01:54:17;;;;;;;20.23;4.60;;;;;;;9.10;100.00;98509.25;5074786;28;20420;-51
2021/12/27 01:56:51;;;;;;;16.20;3.28;;;;;;;9.17;100.00;98506.91;5074574;28;20071;-50
2021/12/27 01:59:22;;;;;;;18.35;3.55;;;;;;;9.05;100.00;98490.31;5074427;28;20526;-50
2021/12/27 02:01:51;;;;;;;15.50;3.95;;;;;;;9.06;100.00;98453.16;5074607;28;20056;-51
2021/12/27 02:04:19;;;;;;;14.20;4.13;;;;;;;8.97;100.00;98453.97;5075185;28;20131;-48
2021/12/27 02:06:48;;;;;;;19.13;3.80;;;;;;;8.96;100.00;98467.31;5074822;28;20056;-51
2021/12/27 02:09:17;;;;;;;13.77;4.43;;;;;;;8.93;100.00;98471.09;5074446;28;20060;-51
2021/12/27 02:11:50;;;;;;;13.93;4.45;;;;;;;8.91;100.00;98452.69;5074795;28;20053;-51
2021/12/27 02:14:18;;;;;;;16.20;3.72;;;;;;;8.87;100.00;98437.22;5074774;28;20053;-51
2021/12/27 02:16:46;;;;;;;14.98;3.80;;;;;;;8.82;100.00;98423.59;5074308;28;20093;-49
2021/12/27 02:19:15;;;;;;;21.25;5.05;;;;;;;8.78;100.00;98423.03;5074734;28;20060;-49
2021/12/27 02:21:44;;;;;;;18.02;4.47;;;;;;;8.74;100.00;98403.09;5074657;28;20060;-50
2021/12/27 02:24:14;;;;;;;21.13;4.38;;;;;;;8.70;100.00;98399.91;5074094;28;20135;-50
2021/12/27 02:26:43;;;;;;;19.10;4.53;;;;;;;8.63;100.00;98384.72;5074827;28;20563;-51
2021/12/27 02:29:11;;;;;;;13.02;4.47;;;;;;;8.64;100.00;98375.81;5074523;28;20052;-49
2021/12/27 02:31:41;;;;;;;18.65;4.57;;;;;;;8.60;100.00;98367.31;5074205;28;20060;-50
2021/12/27 02:34:10;;;;;;;11.27;4.85;;;;;;;8.61;100.00;98354.94;5073922;28;20102;-48
2021/12/27 02:36:38;;;;;;;22.88;5.47;;;;;;;8.60;100.00;98355.91;5074047;28;20110;-49
2021/12/27 02:39:08;;;;;;;12.20;4.72;;;;;;;8.55;100.00;98349.22;5074721;28;20069;-50
2021/12/27 02:41:36;;;;;;;19.08;4.97;;;;;;;8.53;100.00;98345.88;5075010;28;20052;-51
2021/12/27 02:44:05;;;;;;;14.68;5.57;;;;;;;8.52;100.00;98324.88;5073883;28;20504;-49
2021/12/27 02:46:34;;;;;;;22.15;5.30;;;;;;;8.51;100.00;98305.56;5074361;28;20056;-51
2021/12/27 02:49:02;;;;;;;11.70;5.30;;;;;;;8.48;100.00;98300.53;5074033;28;20171;-51
2021/12/27 02:51:31;;;;;;;16.38;5.00;;;;;;;8.52;100.00;98301.94;5074306;28;20450;-51
2021/12/27 02:53:59;;;;;;;16.17;5.18;;;;;;;8.53;100.00;98298.31;5074912;28;20404;-50
2021/12/27 02:56:29;;;;;;;18.70;4.88;;;;;;;8.54;100.00;98288.59;5073875;28;20563;-50
2021/12/27 02:58:58;;;;;;;13.15;5.25;;;;;;;8.50;100.00;98282.72;5075142;28;20052;-51
2021/12/27 03:01:28;;;;;;;11.80;5.65;;;;;;;8.45;100.00;98270.91;5073949;28;20059;-50
2021/12/27 03:03:57;;;;;;;15.70;4.80;;;;;;;8.44;100.00;98270.09;5073662;28;20057;-50
2021/12/27 03:06:25;;;;;;;16.58;5.18;;;;;;;8.47;100.00;98253.09;5077544;28;20052;-48
2021/12/27 03:08:53;;;;;;;10.27;5.05;;;;;;;8.43;100.00;98241.97;5079072;28;20086;-51
2021/12/27 03:11:22;;;;;;;11.60;5.50;;;;;;;8.41;100.00;98241.25;5078375;28;20057;-49
2021/12/27 03:13:52;;;;;;;13.05;5.45;;;;;;;8.32;100.00;98242.06;5077938;28;20057;-50
2021/12/27 03:16:23;;;;;;;14.75;5.15;;;;;;;8.38;100.00;98244.16;5078915;28;20048;-51
2021/12/27 03:18:53;;;;;;;12.40;5.17;;;;;;;8.36;100.00;98243.47;5078165;28;20143;-48
2021/12/27 03:21:21;;;;;;;13.90;5.35;;;;;;;8.38;100.00;98242.34;5077696;28;20053;-51
2021/12/27 03:23:50;;;;;;;16.98;5.63;;;;;;;8.43;100.00;98243.78;5078033;28;20052;-51
2021/12/27 03:26:19;;;;;;;8.63;4.93;;;;;;;8.51;100.00;98236.03;5077869;28;20060;-49
2021/12/27 03:28:48;;;;;;;13.77;4.88;;;;;;;8.55;100.00;98227.66;5077825;28;20087;-50
2021/12/27 03:31:19;;;;;;;10.30;4.65;;;;;;;8.55;100.00;98235.59;5077828;28;20412;-50
2021/12/27 03:33:47;;;;;;;15.70;4.93;;;;;;;8.60;100.00;98229.06;5078372;28;20140;-49
2021/12/27 03:36:16;;;;;;;11.20;4.07;;;;;;;8.62;100.00;98238.50;5077707;28;20060;-51
2021/12/27 03:38:47;;;;;;;8.60;4.07;;;;;;;8.60;100.00;98224.63;5077262;28;20060;-50
2021/12/27 03:41:18;;;;;;;10.05;4.10;;;;;;;8.59;100.00;98227.38;5077112;28;20110;-51
2021/12/27 03:43:46;;;;;;;8.90;4.00;;;;;;;8.60;100.00;98229.06;5077322;28;20056;-50
2021/12/27 03:46:15;;;;;;;12.98;4.45;;;;;;;8.58;100.00;98220.47;5077469;28;20385;-51
2021/12/27 03:48:44;;;;;;;9.55;4.05;;;;;;;8.65;100.00;98226.84;5077166;28;20065;-49
2021/12/27 03:51:13;;;;;;;7.65;3.53;;;;;;;8.66;100.00;98223.25;5077399;28;20052;-50
2021/12/27 03:53:41;;;;;;;7.32;3.70;;;;;;;8.65;100.00;98218.91;5076798;28;20056;-51
2021/12/27 03:56:10;;;;;;;7.65;3.25;;;;;;;8.61;100.00;98220.16;5077010;28;20508;-51
2021/12/27 03:58:49;;;;;;;6.30;2.92;;;;;;;8.63;100.00;98211.13;5077216;28;20061;-49
2021/12/27 04:01:21;;;;;;;6.65;3.38;;;;;;;8.65;100.00;98206.53;5078146;28;20052;-51
2021/12/27 04:03:52;;;;;;;9.57;3.50;;;;;;;8.66;100.00;98207.38;5076943;28;20492;-48
2021/12/27 04:06:22;;;;;;;5.17;2.73;;;;;;;8.71;100.00;98210.44;5077471;28;20052;-48
2021/12/27 04:08:50;;;;;;;7.00;2.53;;;;;;;8.70;100.00;98198.19;5076770;28;20060;-49
2021/12/27 04:11:18;;;;;;;4.80;1.90;;;;;;;8.78;100.00;98211.53;5077607;28;20068;-48
2021/12/27 04:13:47;;;;;;;4.07;2.20;;;;;;;8.85;100.00;98202.06;5077337;28;20413;-49
2021/12/27 04:16:15;;;;;;;4.90;2.08;;;;;;;8.84;100.00;98211.00;5076874;28;20063;-49
2021/12/27 04:18:43;;;;;;;4.18;1.85;;;;;;;8.86;100.00;98198.47;5076268;28;20420;-51
2021/12/27 04:21:13;;;;;;;4.78;1.60;;;;;;;8.93;100.00;98188.97;5076564;28;20056;-51
2021/12/27 04:23:42;;;;;;;3.53;1.83;;;;;;;8.90;100.00;98183.16;5077451;28;20052;-49
2021/12/27 04:26:10;;;;;;;2.28;1.40;;;;;;;8.84;100.00;98183.69;5077616;28;20392;-49
2021/12/27 04:28:38;;;;;;;3.38;1.48;;;;;;;8.85;100.00;98180.91;5077591;28;20138;-49
2021/12/27 04:31:07;;;;;;;5.22;1.33;;;;;;;8.88;100.00;98185.09;5076722;28;20412;-49
2021/12/27 04:33:35;;;;;;;2.70;1.17;;;;;;;9.00;100.00;98193.72;5077282;28;20053;-49
2021/12/27 04:36:03;;;;;;;3.97;1.80;;;;;;;8.93;100.00;98188.97;5076610;28;20062;-49
2021/12/27 04:38:33;;;;;;;3.95;1.52;;;;;;;8.90;100.00;98183.97;5076185;28;20056;-50
2021/12/27 04:41:01;;;;;;;1.70;1.13;;;;;;;8.90;100.00;98176.03;5076236;28;20057;-49
2021/12/27 04:43:30;;;;;;;2.03;1.10;;;;;;;8.92;100.00;98186.47;5076412;28;20068;-51
2021/12/27 04:45:58;;;;;;;5.65;1.50;;;;;;;8.95;100.00;98180.09;5076155;28;20500;-49
2021/12/27 04:48:27;;;;;;;3.35;1.10;;;;;;;9.02;100.00;98192.59;5076939;28;20057;-49
2021/12/27 04:50:55;;;;;;;3.58;1.20;;;;;;;9.00;100.00;98180.50;5076023;28;20500;-49
2021/12/27 04:53:24;;;;;;;2.60;1.10;;;;;;;8.99;100.00;98171.72;5076627;28;20053;-49
2021/12/27 04:55:54;;;;;;;3.20;1.42;;;;;;;8.98;100.00;98174.50;5077088;28;20060;-49
2021/12/27 04:58:23;;;;;;;3.75;1.23;;;;;;;8.92;100.00;98174.09;5076128;28;20064;-49
2021/12/27 05:00:53;;;;;;;5.00;1.58;;;;;;;8.90;100.00;98177.88;5076141;28;20504;-51
2021/12/27 05:03:21;;;;;;;2.28;1.30;;;;;;;8.92;100.00;98176.72;5076971;28;20053;-51
2021/12/27 05:05:50;;;;;;;4.05;1.30;;;;;;;8.91;100.00;98185.66;5075675;28;20555;-49
2021/12/27 05:08:18;;;;;;;4.03;1.25;;;;;;;8.96;100.00;98198.47;5076027;28;20064;-49
2021/12/27 05:10:47;;;;;;;2.83;1.23;;;;;;;9.04;100.00;98184.50;5075953;28;20064;-49
2021/12/27 05:13:18;;;;;;;4.43;1.13;;;;;;;9.04;100.00;98190.63;5075601;28;20500;-50
2021/12/27 05:15:46;;;;;;;1.30;1.05;;;;;;;9.01;100.00;98200.66;5075933;28;20059;-50
2021/12/27 05:18:15;;;;;;;1.85;1.10;;;;;;;9.04;100.00;98210.97;5075405;28;20071;-51
2021/12/27 05:20:43;;;;;;;2.83;1.08;;;;;;;9.10;100.00;98205.09;5075443;28;20056;-50
2021/12/27 05:23:12;;;;;;;2.50;1.00;;;;;;;9.08;100.00;98222.94;5075651;28;20064;-50
2021/12/27 05:25:40;;;;;;;2.95;1.30;;;;;;;9.05;100.00;98220.56;5075388;28;20049;-49
2021/12/27 05:28:09;;;;;;;2.70;1.00;;;;;;;9.01;100.00;98204.16;5075305;28;20060;-49
2021/12/27 05:30:41;;;;;;;3.03;0.95;;;;;;;9.15;100.00;98217.91;5075243;28;20504;-49
2021/12/27 05:33:09;;;;;;;1.92;1.00;;;;;;;9.10;100.00;98223.63;5075231;28;20118;-49
2021/12/27 05:35:37;;;;;;;1.73;0.82;;;;;;;9.16;100.00;98223.03;5076347;28;20079;-49
2021/12/27 05:38:06;;;;;;;4.45;1.30;;;;;;;9.22;100.00;98225.13;5075298;28;20052;-50
2021/12/27 05:40:34;;;;;;;2.70;1.00;;;;;;;9.27;100.00;98228.16;5075036;28;20523;-49
2021/12/27 05:43:02;;;;;;;3.40;1.00;;;;;;;9.39;100.00;98228.84;5075313;28;20064;-51
2021/12/27 05:45:31;;;;;;;6.38;1.35;;;;;;;9.44;100.00;98225.78;5075594;28;20083;-50
2021/12/27 05:48:01;;;;;;;6.57;1.67;;;;;;;9.45;100.00;98227.44;5075203;28;20060;-49
2021/12/27 05:50:29;;;;;;;9.05;1.90;;;;;;;9.46;100.00;98221.16;5075163;28;20053;-50
2021/12/27 05:52:57;;;;;;;5.90;1.92;;;;;;;9.37;100.00;98222.03;5075081;28;20540;-49
2021/12/27 05:55:26;;;;;;;7.25;1.58;;;;;;;9.30;100.00;98219.13;5075688;28;20056;-51
2021/12/27 05:57:54;;;;;;;16.33;2.50;;;;;;;9.26;100.00;98220.38;5074668;28;20071;-49
2021/12/27 06:00:22;;;;;;;12.02;2.15;;;;;;;9.24;100.00;98220.50;5074637;28;20053;-49
2021/12/27 06:02:53;;;;;;;15.93;2.85;;;;;;;9.25;100.00;98208.97;5075169;28;20064;-49
2021/12/27 06:05:24;;;;;;;25.00;3.08;;;;;;;9.15;100.00;98208.16;5075716;28;20056;-50
2021/12/27 06:07:52;;;;;;;21.25;3.47;;;;;;;9.15;100.00;98207.34;5074297;28;20508;-51
2021/12/27 06:10:21;;;;;;;24.38;3.67;;;;;;;9.18;100.00;98218.47;5074515;28;20054;-49
2021/12/27 06:12:50;;;;;;;25.83;2.58;;;;;;;9.11;100.00;98222.63;5074461;28;20059;-49
2021/12/27 06:15:18;;;;;;;29.67;5.03;;;;;;;9.05;100.00;98221.41;5074483;28;20072;-50
2021/12/27 06:17:46;;;;;;;24.85;4.43;;;;;;;9.11;100.00;98214.69;5074745;28;20083;-50
2021/12/27 06:20:16;;;;;;;26.27;2.97;;;;;;;9.06;100.00;98231.00;5074068;28;20068;-51
2021/12/27 06:22:48;;;;;;;26.15;2.97;;;;;;;9.04;100.00;98232.09;5074383;28;20059;-50
2021/12/27 06:25:17;;;;;;;28.98;3.85;;;;;;;9.11;100.00;98235.84;5074758;28;20057;-50
2021/12/27 06:27:45;;;;;;;33.08;4.93;;;;;;;9.02;100.00;98228.78;5074615;28;20416;-49
2021/12/27 06:30:15;;;;;;;33.40;3.53;;;;;;;9.05;100.00;98239.91;5074546;28;20052;-51
2021/12/27 06:32:45;;;;;;;40.97;4.25;;;;;;;9.05;100.00;98244.38;5074200;28;20052;-51
2021/12/27 06:35:14;;;;;;;32.08;3.90;;;;;;;9.11;100.00;98251.72;5073939;28;20053;-50
2021/12/27 06:37:44;;;;;;;32.85;5.80;;;;;;;9.21;100.00;98239.34;5074724;28;20428;-50
2021/12/27 06:40:15;;;;;;;35.13;5.47;;;;;;;9.22;100.00;98246.28;5073348;28;20056;-49
2021/12/27 06:42:44;;;;;;;45.57;7.10;;;;;;;9.17;100.00;98243.22;5075316;28;20052;-48
2021/12/27 06:45:12;;;;;;;31.95;5.32;;;;;;;9.16;100.00;98241.56;5073860;28;20083;-49
2021/12/27 06:47:41;;;;;;;40.10;5.45;;;;;;;9.11;100.00;98249.94;5074372;28;20388;-50
2021/12/27 06:50:11;;;;;;;31.90;4.72;;;;;;;9.16;100.00;98262.72;5074381;28;20064;-49
2021/12/27 06:52:39;;;;;;;33.20;5.72;;;;;;;9.22;100.00;98270.09;5074065;28;20061;-51
2021/12/27 06:55:09;;;;;;;39.50;5.97;;;;;;;9.25;100.00;98261.88;5074765;28;20137;-50
2021/12/27 06:57:39;;;;;;;40.60;5.85;;;;;;;9.38;100.00;98271.31;5074312;28;20424;-50
2021/12/27 07:00:10;;;;;;;49.60;7.25;;;;;;;9.53;100.00;98269.91;5075095;28;20061;-48
2021/12/27 07:02:38;;;;;;;51.35;7.88;;;;;;;9.64;100.00;98277.66;5074246;28;20056;-50
2021/12/27 07:05:07;;;;;;;32.70;4.72;;;;;;;9.76;100.00;98285.44;5073971;28;20092;-49
2021/12/27 07:07:35;;;;;;;42.95;6.55;;;;;;;9.86;100.00;98286.25;5073908;28;20053;-50
2021/12/27 07:10:05;;;;;;;46.85;6.07;;;;;;;9.88;100.00;98289.56;5074462;28;20060;-51
2021/12/27 07:12:33;;;;;;;42.22;6.10;;;;;;;9.90;100.00;98298.22;5074869;28;20059;-49
2021/12/27 07:15:03;;;;;;;57.50;6.85;;;;;;;9.99;100.00;98302.63;5074962;28;20057;-50
2021/12/27 07:17:31;;;;;;;57.50;5.85;;;;;;;10.07;100.00;98309.00;5074898;28;20052;-49
2021/12/27 07:19:59;;;;;;;42.97;6.95;;;;;;;10.04;100.00;98305.69;5073253;28;20068;-50
2021/12/27 07:22:27;;;;;;;45.03;5.90;;;;;;;10.02;100.00;98304.19;5074037;28;20526;-50
2021/12/27 07:24:55;;;;;;;49.85;5.85;;;;;;;10.08;100.00;98302.75;5074638;28;20052;-49
2021/12/27 07:27:24;;;;;;;50.50;7.15;;;;;;;10.07;100.00;98298.41;5074168;28;20053;-51
2021/12/27 07:29:52;;;;;;;52.70;7.90;;;;;;;10.09;100.00;98296.47;5074518;28;20056;-50
2021/12/27 07:32:22;;;;;;;46.75;6.60;;;;;;;10.20;100.00;98290.97;5074478;28;20515;-50
2021/12/27 07:34:51;;;;;;;49.13;5.90;;;;;;;10.15;100.00;98295.88;5073913;28;20063;-49
2021/12/27 07:37:19;;;;;;;50.40;7.05;;;;;;;10.06;100.00;98296.78;5073886;28;20053;-51
2021/12/27 07:39:47;;;;;;;43.03;5.28;;;;;;;9.95;100.00;98301.28;5073470;28;20053;-50
2021/12/27 07:42:15;;;;;;;41.75;6.78;;;;;;;10.06;100.00;98291.47;5073552;28;20501;-51
2021/12/27 07:44:44;;;;;;;47.17;7.15;;;;;;;10.09;100.00;98296.47;5074135;28;20057;-50
2021/12/27 07:47:12;;;;;;;57.53;6.95;;;;;;;10.21;100.00;98311.19;5073722;28;20053;-49
2021/12/27 07:49:42;;;;;;;59.95;7.72;;;;;;;10.22;100.00;98308.41;5074068;28;20057;-49
2021/12/27 07:52:10;;;;;;;48.33;6.38;;;;;;;10.27;100.00;98318.56;5076327;28;20056;-49
2021/12/27 07:54:38;;;;;;;56.42;8.32;;;;;;;10.21;100.00;98319.16;5077501;28;20431;-50
2021/12/27 07:57:07;;;;;;;71.13;9.20;;;;;;;10.25;100.00;98317.03;5077012;28;20512;-49
2021/12/27 07:59:35;;;;;;;54.60;8.48;;;;;;;10.39;100.00;98316.59;5078019;28;20098;-49
2021/12/27 08:02:03;;;;;;;61.55;8.40;;;;;;;10.38;100.00;98312.25;5077193;28;20059;-50
2021/12/27 08:04:32;;;;;;;59.20;10.05;;;;;;;10.33;100.00;98315.34;5078082;28;20099;-50
2021/12/27 08:07:01;;;;;;;51.88;7.38;;;;;;;10.28;100.00;98336.13;5077345;28;20091;-51
2021/12/27 08:09:29;;;;;;;53.20;7.25;;;;;;;10.25;100.00;98331.09;5077119;28;20056;-48
2021/12/27 08:11:58;;;;;;;53.85;6.82;;;;;;;10.24;100.00;98342.72;5077620;28;20056;-52
2021/12/27 08:14:26;;;;;;;55.10;8.88;;;;;;;10.25;100.00;98346.19;5076455;28;20131;-49
2021/12/27 08:16:54;;;;;;;52.28;8.02;;;;;;;10.25;100.00;98344.34;5076939;28;20397;-50
2021/12/27 08:19:23;;;;;;;60.63;8.93;;;;;;;10.33;100.00;98349.78;5077105;28;20102;-51
2021/12/27 08:21:51;;;;;;;71.90;9.68;;;;;;;10.32;100.00;98356.09;5076886;28;20420;-51
2021/12/27 08:24:21;;;;;;;45.03;7.30;;;;;;;10.28;100.00;98353.84;5077072;28;20083;-49
2021/12/27 08:26:50;;;;;;;70.78;8.55;;;;;;;10.24;100.00;98361.25;5076238;28;20048;-48
2021/12/27 08:29:18;;;;;;;52.88;7.95;;;;;;;10.28;100.00;98362.63;5077542;28;20060;-49
2021/12/27 08:31:47;;;;;;;56.13;9.38;;;;;;;10.40;100.00;98373.91;5076367;28;20063;-49
2021/12/27 08:34:15;;;;;;;66.82;8.18;;;;;;;10.53;100.00;98374.41;5076995;28;20060;-51
2021/12/27 08:36:43;;;;;;;68.28;8.52;;;;;;;10.67;100.00;98364.28;5076659;28;20063;-50
2021/12/27 08:39:11;;;;;;;69.38;8.77;;;;;;;10.66;100.00;98360.81;5076806;28;20409;-49
2021/12/27 08:41:42;;;;;;;65.82;8.98;;;;;;;10.75;100.00;98367.03;5077023;28;20063;-50
2021/12/27 08:44:10;;;;;;;59.33;7.38;;;;;;;10.79;100.00;98365.72;5076962;28;20056;-52
2021/12/27 08:46:40;;;;;;;58.92;10.43;;;;;;;10.82;100.00;98368.09;5076433;28;20057;-49
2021/12/27 08:49:08;;;;;;;74.95;7.90;;;;;;;10.92;100.00;98378.66;5076864;28;20045;-52
2021/12/27 08:51:36;;;;;;;63.58;7.88;;;;;;;10.93;100.00;98380.34;5076372;28;20389;-51
2021/12/27 08:54:05;;;;;;;59.05;8.13;;;;;;;10.90;100.00;98381.44;5076875;28;20052;-51
2021/12/27 08:56:34;;;;;;;69.60;9.88;;;;;;;10.88;100.00;98382.59;5077089;28;20393;-49
2021/12/27 08:59:03;;;;;;;68.78;7.72;;;;;;;10.76;100.00;98364.22;5075889;28;20061;-50
2021/12/27 09:01:32;;;;;;;56.88;7.93;;;;;;;10.90;100.00;98391.22;5075768;28;20562;-50
2021/12/27 09:04:00;;;;;;;61.60;9.75;;;;;;;10.89;100.00;98394.84;5075473;28;20059;-49
2021/12/27 09:06:28;;;;;;;48.78;8.60;;;;;;;10.91;100.00;98399.03;5076062;28;20114;-49
2021/12/27 09:08:57;;;;;;;63.67;8.80;;;;;;;10.93;100.00;98406.84;5076021;28;20052;-48
2021/12/27 09:11:25;;;;;;;65.95;10.88;;;;;;;10.92;100.00;98391.91;5076570;28;20097;-51
2021/12/27 09:13:53;;;;;;;73.57;11.57;;;;;;;10.93;100.00;98404.19;5076777;28;20055;-49
2021/12/27 09:16:43;;;;;;;71.82;9.25;;;;;;;10.95;100.00;98399.56;5075740;28;20055;-50
2021/12/27 09:19:12;;;;;;;60.85;10.27;;;;;;;10.98;100.00;98404.59;5075918;28;20096;-50
2021/12/27 09:21:40;;;;;;;64.40;7.40;;;;;;;11.08;100.00;98415.16;5075645;28;20497;-51
2021/12/27 09:24:13;;;;;;;64.38;8.32;;;;;;;11.20;100.00;98426.38;5076011;28;20053;-49
2021/12/27 09:26:42;;;;;;;73.00;8.00;;;;;;;11.24;100.00;98419.78;5075640;28;20106;-49
2021/12/27 09:29:10;;;;;;;66.20;8.07;;;;;;;11.29;100.00;98413.03;5075274;28;20059;-50
2021/12/27 09:31:39;;;;;;;51.30;8.82;;;;;;;11.40;100.00;98414.63;5075533;28;20064;-51
2021/12/27 09:34:08;;;;;;;65.25;8.13;;;;;;;11.41;100.00;98436.69;5075783;28;20182;-50
2021/12/27 09:36:36;;;;;;;60.42;8.18;;;;;;;11.42;100.00;98417.97;5075534;28;20056;-49
2021/12/27 09:39:05;;;;;;;50.58;7.97;;;;;;;11.46;100.00;98429.94;5074884;28;20052;-48
2021/12/27 09:41:34;;;;;;;47.13;7.50;;;;;;;11.53;100.00;98431.03;5075636;28;20063;-49
2021/12/27 09:44:03;;;;;;;57.83;7.97;;;;;;;11.61;100.00;98450.66;5075561;28;20056;-49
2021/12/27 09:46:31;;;;;;;54.10;8.23;;;;;;;11.72;100.00;98439.81;5075796;28;20508;-49
2021/12/27 09:49:01;;;;;;;47.47;7.95;;;;;;;11.98;99.09;98444.34;5075183;28;20053;-49
2021/12/27 09:51:34;;;;;;;51.28;8.88;;;;;;;12.19;96.44;98447.50;5075725;28;20072;-49
2021/12/27 09:54:02;;;;;;;56.70;7.80;;;;;;;12.10;96.33;98451.06;5074838;28;20059;-51
2021/12/27 09:56:30;;;;;;;59.20;8.10;;;;;;;12.10;96.97;98448.41;5075055;28;20061;-51
2021/12/27 09:58:59;;;;;;;44.20;7.63;;;;;;;12.51;95.18;98455.81;5075545;28;20052;-51
2021/12/27 10:01:27;;;;;;;51.55;8.93;;;;;;;12.97;91.35;98457.22;5075438;28;20048;-49
2021/12/27 10:03:57;;;;;;;53.47;8.00;;;;;;;13.17;89.88;98463.09;5075208;28;20059;-49
2021/12/27 10:06:27;;;;;;;52.85;9.55;;;;;;;13.14;89.13;98474.06;5075184;28;20066;-51
2021/12/27 10:08:59;;;;;;;49.65;8.95;;;;;;;13.06;89.26;98474.03;5074525;28;20057;-49
2021/12/27 10:11:30;;;;;;;57.03;9.48;;;;;;;12.91;90.38;98484.47;5075264;28;20509;-49
2021/12/27 10:14:00;;;;;;;44.90;7.03;;;;;;;12.91;90.94;98479.16;5074688;28;20052;-50
2021/12/27 10:16:29;;;;;;;56.70;8.93;;;;;;;13.35;88.00;98479.00;5074331;28;20063;-50
2021/12/27 10:18:58;;;;;;;58.28;7.90;;;;;;;14.12;86.47;98484.09;5074432;28;20056;-51
2021/12/27 10:21:27;;;;;;;55.38;9.63;;;;;;;15.38;77.88;98489.75;5074577;28;20064;-51
2021/12/27 10:24:09;;;;;;;50.35;8.50;;;;;;;16.25;74.29;98486.81;5075511;28;20052;-48
2021/12/27 10:26:38;;;;;;;43.03;6.75;;;;;;;17.19;67.39;98493.56;5074756;28;20053;-50
2021/12/27 10:29:11;;;;;;;46.03;6.60;;;;;;;17.41;65.99;98487.22;5074935;28;20059;-51
2021/12/27 10:32:09;;;;;;;39.70;7.65;;;;;;;17.61;65.63;98483.94;5074001;28;20056;-49
2021/12/27 10:34:39;;;;;;;42.08;7.95;;;;;;;17.85;63.67;98495.31;5074726;28;20056;-49
2021/12/27 10:37:12;;;;;;;47.75;9.02;;;;;;;17.65;62.12;98482.53;5075092;28;20058;-51
2021/12/27 10:39:50;;;;;;;35.53;7.18;;;;;;;17.87;62.08;98485.25;5074667;28;20171;-50
2021/12/27 10:42:21;;;;;;;45.17;8.48;;;;;;;17.75;62.93;98490.25;5073760;28;20052;-50
2021/12/27 10:44:51;;;;;;;33.88;7.03;;;;;;;17.44;62.54;98502.91;5073887;28;20064;-51
2021/12/27 10:47:29;;;;;;;42.20;7.75;;;;;;;16.83;64.40;98483.59;5075236;28;20056;-50
2021/12/27 10:50:03;;;;;;;42.75;6.75;;;;;;;15.91;67.86;98485.44;5073803;28;20096;-51
2021/12/27 10:52:58;;;;;;;37.88;7.00;;;;;;;15.63;70.52;98486.94;5074523;28;20068;-50
2021/12/27 10:55:31;;;;;;;48.20;7.05;;;;;;;16.35;68.15;98483.91;5073723;28;20063;-49
2021/12/27 10:58:12;;;;;;;47.75;8.10;;;;;;;16.52;66.59;98482.75;5073740;28;20057;-49
2021/12/27 11:00:40;;;;;;;46.55;7.03;;;;;;;15.71;69.04;98476.19;5073586;28;20060;-51
2021/12/27 11:03:23;;;;;;;52.78;8.48;;;;;;;14.98;73.18;98467.59;5073917;28;20063;-50
2021/12/27 11:05:51;;;;;;;;;;;;;;;15.16;72.30;98478.88;5074343;28;20053;-50
2021/12/27 11:08:19;;;;;;;43.60;7.05;;;;;;;16.11;68.55;98490.31;5073862;28;19920;-49
2021/12/27 11:10:49;;;;;;;47.72;6.53;;;;;;;16.26;66.94;98479.66;5073792;28;20063;-50
2021/12/27 11:13:17;;;;;;;59.65;9.93;;;;;;;15.90;69.37;98482.94;5074371;28;20174;-51
2021/12/27 11:15:45;;;;;;;45.78;8.63;;;;;;;15.77;71.20;98496.91;5074359;28;20063;-49
2021/12/27 11:18:15;;;;;;;53.50;9.27;;;;;;;15.52;72.56;98490.84;5074042;28;20471;-51
2021/12/27 11:20:46;;;;;;;55.35;8.68;;;;;;;15.56;72.08;98502.84;5074025;28;20052;-49
2021/12/27 11:23:15;;;;;;;40.47;7.15;;;;;;;16.07;69.95;98494.34;5073385;28;20063;-49
2021/12/27 11:25:44;;;;;;;44.35;6.85;;;;;;;17.32;65.48;98474.97;5074459;28;20417;-50
2021/12/27 11:28:28;;;;;;;50.45;7.22;;;;;;;17.97;62.21;98469.66;5078422;28;20059;-51
2021/12/27 11:31:05;;;;;;;40.85;6.88;;;;;;;19.14;57.32;98475.44;5077322;28;20052;-49
2021/12/27 11:33:52;;;;;;;44.47;6.97;;;;;;;19.87;52.29;98483.78;5077219;28;20052;-50
2021/12/27 11:36:21;;;;;;;29.80;5.82;;;;;;;19.84;52.05;98482.31;5078041;28;20485;-50
2021/12/27 11:38:49;;;;;;;37.97;6.50;;;;;;;18.80;55.31;98469.88;5077663;28;20060;-51